Time;durP1;ratioP1;P1;durP2;ratioP2;P2;SDS_P1;SDS_P2;PMS_P1;PMS_P2;Temp;Humidity;BMP_temperature;BMP_pressure;BME280_temperature;BME280_humidity;BME280_pressure;Samples;Min_cycle;Max_cycle;Signal;HPM_P1;HPM_P2
2022/01/27 00:05:19;;;;;;;;;54.75;44.00;;;;;11.63;55.35;103005.06;5061602;28;62109;-78
2022/01/27 00:08:11;;;;;;;;;60.50;45.00;;;;;11.68;55.46;103008.06;5061598;28;61792;-78
2022/01/27 00:10:53;;;;;;;;;61.75;44.00;;;;;11.66;55.31;102999.13;5062185;28;62102;-78
2022/01/27 00:13:28;;;;;;;;;57.25;40.50;;;;;11.68;55.32;102999.25;5062131;28;61964;-78
2022/01/27 00:16:00;;;;;;;;;51.25;39.00;;;;;11.69;55.51;102996.72;5061466;28;63451;-78
2022/01/27 00:18:26;;;;;;;;;58.00;40.25;;;;;11.72;54.88;102999.59;5061679;28;61776;-78
2022/01/27 00:20:52;;;;;;;;;56.00;47.00;;;;;11.71;55.28;103000.38;5064929;28;62188;-78
2022/01/27 00:23:17;;;;;;;;;59.50;42.50;;;;;11.71;55.15;102989.84;5084370;28;61780;-78
2022/01/27 00:25:44;;;;;;;;;53.50;39.25;;;;;11.71;55.49;102992.47;5083811;28;62581;-78
2022/01/27 00:28:09;;;;;;;;;61.50;45.50;;;;;11.72;55.28;102985.50;5100375;27;62160;-78
2022/01/27 00:30:37;;;;;;;;;55.00;45.25;;;;;11.76;55.63;102984.94;5084316;28;61945;-78
2022/01/27 00:33:04;;;;;;;;;56.00;41.50;;;;;11.73;55.46;102975.09;5084472;28;62030;-77
2022/01/27 00:35:33;;;;;;;;;56.50;42.75;;;;;11.73;55.06;102969.84;5084042;28;61933;-78
2022/01/27 00:38:00;;;;;;;;;58.25;43.00;;;;;11.75;55.40;102967.31;5083267;28;61998;-78
2022/01/27 00:40:25;;;;;;;;;59.75;45.25;;;;;11.76;54.99;102967.44;5084172;27;61902;-78
2022/01/27 00:42:52;;;;;;;;;62.25;41.25;;;;;11.77;55.23;102968.34;5084222;27;62151;-78
2022/01/27 00:45:17;;;;;;;;;70.25;45.00;;;;;11.75;55.21;102964.69;5083656;27;62034;-78
2022/01/27 00:47:43;;;;;;;;;60.50;41.75;;;;;11.73;55.31;102959.31;5084093;27;61930;-78
2022/01/27 00:50:09;;;;;;;;;62.50;39.75;;;;;11.73;55.00;102954.03;5083862;27;61828;-78
2022/01/27 00:52:45;;;;;;;;;60.25;42.75;;;;;11.74;55.42;102957.59;5084353;28;61884;-78
2022/01/27 00:55:13;;;;;;;;;58.00;42.25;;;;;11.77;55.52;102957.84;5081373;28;64510;-78
2022/01/27 01:00:21;;;;;;;;;55.00;41.75;;;;;11.81;55.64;102955.53;5084050;27;62063;-78
2022/01/27 01:02:54;;;;;;;;;57.25;42.25;;;;;11.80;55.25;102956.34;5083866;28;61790;-78
2022/01/27 01:08:52;;;;;;;;;59.25;43.00;;;;;11.82;55.12;102945.91;5083930;28;62128;-77
2022/01/27 01:16:13;;;;;;;;;59.25;41.00;;;;;11.77;54.94;102939.41;5083271;28;61741;-78
2022/01/27 01:18:53;;;;;;;;;62.75;41.25;;;;;11.73;55.58;102934.72;5083423;27;62077;-78
2022/01/27 01:34:19;;;;;;;;;60.00;41.25;;;;;11.60;55.38;102904.88;5083097;27;61950;-78
2022/01/27 01:37:05;;;;;;;;;49.00;35.75;;;;;11.65;55.30;102911.41;5079946;28;63742;-78
2022/01/27 01:39:34;;;;;;;;;55.75;39.25;;;;;11.66;55.54;102907.97;5083332;28;61875;-78
2022/01/27 01:42:01;;;;;;;;;43.00;38.25;;;;;11.65;55.38;102903.50;5083639;28;61884;-78
2022/01/27 01:44:27;;;;;;;;;52.50;39.00;;;;;11.61;55.07;102890.94;5099358;27;62148;-78
2022/01/27 01:46:54;;;;;;;;;47.00;39.25;;;;;11.65;55.32;102894.69;5082700;28;61816;-77
2022/01/27 01:49:22;;;;;;;;;35.50;35.50;;;;;11.64;55.26;102896.41;5082738;28;62091;-77
2022/01/27 01:51:49;;;;;;;;;51.25;42.75;;;;;11.65;55.09;102886.78;5083061;27;61906;-77
2022/01/27 01:54:15;;;;;;;;;52.25;38.00;;;;;11.70;55.42;102897.66;5083553;28;61682;-78
2022/01/27 01:56:43;;;;;;;;;56.00;38.25;;;;;11.69;55.44;102891.47;5082060;28;61965;-78
2022/01/27 01:59:09;;;;;;;;;55.50;42.75;;;;;11.72;55.47;102894.34;5082774;27;61959;-78
2022/01/27 02:01:36;;;;;;;;;57.50;36.50;;;;;11.76;55.26;102890.22;5082691;28;61994;-78
2022/01/27 02:04:06;;;;;;;;;45.25;39.75;;;;;11.78;55.44;102891.22;5082916;28;61871;-78
2022/01/27 02:06:44;;;;;;;;;61.25;43.50;;;;;11.77;55.53;102892.97;5080906;28;63626;-78
2022/01/27 02:19:55;;;;;;;;;58.00;43.75;;;;;11.79;55.33;102879.94;5082447;28;61736;-78
2022/01/27 02:22:21;;;;;;;;;64.75;44.25;;;;;11.77;55.57;102876.28;5082699;28;61727;-78
2022/01/27 02:24:48;;;;;;;;;62.00;45.75;;;;;11.77;55.87;102873.63;5082885;28;62041;-77
2022/01/27 02:27:15;;;;;;;;;57.00;42.00;;;;;11.80;55.58;102881.75;5080506;28;63529;-77
2022/01/27 02:29:41;;;;;;;;;59.75;44.00;;;;;11.81;55.58;102871.34;5082595;27;61900;-77
2022/01/27 02:32:07;;;;;;;;;57.50;44.25;;;;;11.85;55.35;102875.13;5082202;28;61834;-77
2022/01/27 02:34:33;;;;;;;;;60.50;42.00;;;;;11.84;55.30;102868.00;5082419;28;61976;-78
2022/01/27 02:36:59;;;;;;;;;49.75;38.50;;;;;11.87;55.42;102869.16;5080679;28;62981;-78
2022/01/27 02:39:24;;;;;;;;;48.75;41.75;;;;;11.87;55.27;102861.25;5082632;28;61961;-77
2022/01/27 02:41:49;;;;;;;;;46.50;40.75;;;;;11.87;55.43;102868.25;5080802;28;62143;-77
2022/01/27 02:44:30;;;;;;;;;67.00;48.75;;;;;11.91;55.39;102864.13;5082445;27;61932;-78
2022/01/27 02:46:56;;;;;;;;;64.50;42.50;;;;;11.90;55.32;102862.31;5096936;27;62133;-78
2022/01/27 02:49:23;;;;;;;;;61.50;42.50;;;;;11.91;55.56;102862.44;5082199;28;61990;-78
2022/01/27 02:51:48;;;;;;;;;65.25;45.00;;;;;11.91;55.26;102854.53;5081919;28;61766;-77
2022/01/27 02:54:14;;;;;;;;;60.25;41.00;;;;;11.87;55.13;102860.34;5081189;28;61920;-77
2022/01/27 02:56:44;;;;;;;;;57.75;43.25;;;;;11.84;55.36;102853.13;5080928;28;62648;-77
2022/01/27 02:59:11;;;;;;;;;59.00;40.25;;;;;11.89;55.46;102857.84;5081098;28;61858;-77
2022/01/27 03:01:36;;;;;;;;;68.00;44.75;;;;;11.91;55.39;102859.81;5081905;28;62006;-77
2022/01/27 03:04:02;;;;;;;;;57.75;41.25;;;;;11.90;55.45;102842.19;5082066;28;62102;-78
2022/01/27 03:06:28;;;;;;;;;71.25;46.25;;;;;11.91;55.43;102850.97;5079890;28;63403;-77
2022/01/27 03:08:53;;;;;;;;;45.25;39.50;;;;;11.90;55.34;102841.28;5081856;28;61773;-77
2022/01/27 03:11:36;;;;;;;;;64.25;42.25;;;;;11.89;55.37;102843.00;5084532;28;61984;-77
2022/01/27 03:14:02;;;;;;;;;59.25;44.75;;;;;11.84;55.48;102844.31;5085808;28;62029;-77
2022/01/27 03:16:28;;;;;;;;;63.75;43.00;;;;;11.79;55.64;102840.47;5084864;27;62110;-77
2022/01/27 03:18:53;;;;;;;;;63.00;44.00;;;;;11.80;55.59;102845.84;5084833;28;62056;-77
2022/01/27 03:21:19;;;;;;;;;64.00;47.25;;;;;11.81;55.58;102841.50;5085710;27;61899;-77
2022/01/27 03:23:44;;;;;;;;;62.50;42.50;;;;;11.80;55.70;102848.47;5084538;28;62113;-77
2022/01/27 03:26:10;;;;;;;;;62.75;44.50;;;;;11.82;55.58;102836.31;5100313;27;63683;-77
2022/01/27 03:28:35;;;;;;;;;65.00;44.50;;;;;11.82;55.55;102840.66;5084000;28;61871;-78
2022/01/27 03:31:00;;;;;;;;;64.25;42.75;;;;;11.75;55.71;102843.66;5084466;28;61747;-77
2022/01/27 03:33:26;;;;;;;;;62.75;46.25;;;;;11.77;56.09;102845.59;5085589;28;61923;-77
2022/01/27 03:35:51;;;;;;;;;63.25;47.50;;;;;11.78;55.87;102846.50;5084517;28;62485;-77
2022/01/27 03:38:17;;;;;;;;;62.00;48.75;;;;;11.78;55.93;102849.13;5085269;28;62012;-77
2022/01/27 03:40:42;;;;;;;;;58.75;43.75;;;;;11.80;56.16;102845.84;5084921;28;61778;-78
2022/01/27 03:43:09;;;;;;;;;62.25;46.00;;;;;11.84;55.95;102841.69;5085275;28;61786;-77
2022/01/27 03:45:35;;;;;;;;;61.50;45.00;;;;;11.85;55.82;102849.72;5100142;27;63686;-77
2022/01/27 03:48:01;;;;;;;;;57.25;45.00;;;;;11.84;55.98;102853.13;5084822;28;62001;-78
2022/01/27 03:50:27;;;;;;;;;59.25;45.00;;;;;11.90;55.91;102849.16;5085567;28;61955;-78
2022/01/27 03:52:53;;;;;;;;;67.25;46.75;;;;;11.96;55.83;102846.97;5085085;28;61888;-78
2022/01/27 03:55:18;;;;;;;;;58.00;43.50;;;;;11.96;55.71;102837.34;5084125;28;61873;-78
2022/01/27 03:57:44;;;;;;;;;57.00;43.50;;;;;11.95;55.35;102831.97;5083691;28;61886;-78
2022/01/27 04:00:10;;;;;;;;;64.00;45.00;;;;;11.92;55.79;102837.03;5099953;27;61673;-78
2022/01/27 04:02:39;;;;;;;;;59.50;45.50;;;;;11.87;55.83;102834.03;5085014;27;61991;-77
2022/01/27 04:05:05;;;;;;;;;59.50;44.50;;;;;11.87;55.96;102832.31;5083744;28;61825;-78
2022/01/27 04:07:30;;;;;;;;;58.00;44.50;;;;;11.87;55.80;102827.06;5082521;28;62052;-78
2022/01/27 04:09:55;;;;;;;;;64.00;43.00;;;;;11.89;55.75;102831.53;5083902;28;62090;-78
2022/01/27 04:12:21;;;;;;;;;63.00;40.50;;;;;11.87;55.76;102818.25;5083773;28;61989;-77
2022/01/27 04:14:47;;;;;;;;;50.25;40.75;;;;;11.99;55.64;102826.13;5082734;28;62917;-78
2022/01/27 04:17:12;;;;;;;;;53.50;40.75;;;;;11.99;55.74;102826.13;5083415;28;62063;-78
2022/01/27 04:19:37;;;;;;;;;57.25;43.50;;;;;12.01;55.48;102829.78;5083598;28;62039;-78
2022/01/27 04:22:03;;;;;;;;;61.00;44.00;;;;;11.99;55.42;102821.78;5082759;28;62823;-78
2022/01/27 04:24:30;;;;;;;;;64.00;47.75;;;;;12.00;55.65;102827.97;5082938;28;62603;-78
2022/01/27 04:27:06;;;;;;;;;66.25;46.00;;;;;11.99;55.74;102834.94;5082976;27;61746;-77
2022/01/27 04:29:35;;;;;;;;;61.00;41.75;;;;;11.93;55.76;102834.50;5083125;27;61752;-77
2022/01/27 04:32:02;;;;;;;;;60.50;47.00;;;;;11.96;55.73;102826.81;5083482;28;61975;-78
2022/01/27 04:34:28;;;;;;;;;66.50;45.75;;;;;12.01;56.03;102829.78;5082467;28;62585;-77
2022/01/27 04:36:56;;;;;;;;;57.25;39.50;;;;;12.10;55.50;102834.78;5083248;27;61945;-78
2022/01/27 04:39:36;;;;;;;;;64.50;44.75;;;;;12.13;55.63;102830.66;5082760;28;61916;-78
2022/01/27 04:42:14;;;;;;;;;58.25;43.25;;;;;12.11;55.33;102837.53;5083420;28;61881;-78
2022/01/27 04:44:49;;;;;;;;;65.75;44.25;;;;;12.07;54.93;102833.75;5082577;28;62046;-78
2022/01/27 04:47:22;;;;;;;;;66.75;41.00;;;;;12.07;55.19;102825.88;5083203;28;61926;-78
2022/01/27 04:49:47;;;;;;;;;65.00;41.00;;;;;12.02;55.66;102829.00;5081612;28;61779;-77
2022/01/27 04:52:13;;;;;;;;;58.00;41.00;;;;;12.02;55.21;102832.53;5082820;27;62136;-78
2022/01/27 04:54:52;;;;;;;;;59.75;43.50;;;;;12.02;55.40;102826.38;5082409;28;61740;-78
2022/01/27 04:57:17;;;;;;;;;57.50;41.50;;;;;11.97;55.43;102818.13;5082084;28;61892;-78
2022/01/27 04:59:44;;;;;;;;;50.75;44.25;;;;;12.02;55.58;102818.47;5082807;28;61811;-78
2022/01/27 05:02:18;;;;;;;;;63.50;39.50;;;;;12.04;55.55;102819.50;5082570;28;62025;-77
2022/01/27 05:04:48;;;;;;;;;59.25;41.75;;;;;12.00;55.96;102826.25;5081939;28;61851;-78
2022/01/27 05:07:14;;;;;;;;;59.25;41.25;;;;;12.04;55.53;102824.75;5037807;28;1257087;-78
2022/01/27 05:09:48;;;;;;;;;52.75;42.50;;;;;12.06;55.42;102818.78;5082703;28;62061;-78
2022/01/27 05:12:22;;;;;;;;;60.75;40.75;;;;;12.06;55.38;102810.91;5082310;28;62151;-78
2022/01/27 05:14:48;;;;;;;;;58.75;40.50;;;;;12.10;55.41;102813.72;5083063;28;61902;-78
2022/01/27 05:17:17;;;;;;;;;65.25;44.00;;;;;12.06;55.36;102820.47;5083813;28;61824;-78
2022/01/27 05:19:42;;;;;;;;;59.75;43.75;;;;;12.05;55.71;102809.06;5098990;27;62167;-78
2022/01/27 05:22:07;;;;;;;;;57.00;39.75;;;;;12.09;55.75;102812.81;5083636;28;62133;-78
2022/01/27 05:24:33;;;;;;;;;54.00;40.75;;;;;12.11;55.42;102811.22;5081760;28;63580;-78
2022/01/27 05:26:58;;;;;;;;;51.00;39.00;;;;;12.10;55.31;102817.28;5082653;28;61987;-78
2022/01/27 05:29:30;;;;;;;;;48.50;41.25;;;;;12.09;55.50;102809.28;5083624;28;62270;-78
2022/01/27 05:31:57;;;;;;;;;62.50;42.50;;;;;12.11;55.22;102816.47;5099095;27;61777;-78
2022/01/27 05:34:24;;;;;;;;;56.25;37.75;;;;;12.09;55.21;102810.19;5081527;27;62601;-79
2022/01/27 05:36:50;;;;;;;;;63.75;40.75;;;;;12.13;55.30;102811.34;5098934;27;61903;-79
2022/01/27 05:39:15;;;;;;;;;59.25;43.00;;;;;12.12;55.43;102806.84;5083529;28;61890;-79
2022/01/27 05:41:42;;;;;;;;;52.75;37.50;;;;;12.10;55.38;102806.75;5082899;28;61867;-79
2022/01/27 05:44:07;;;;;;;;;41.75;34.25;;;;;12.07;55.23;102807.44;5082933;28;61768;-79
2022/01/27 05:46:33;;;;;;;;;59.00;40.00;;;;;12.07;55.47;102809.16;5083218;28;62148;-79
2022/01/27 05:48:58;;;;;;;;;59.00;41.50;;;;;12.05;55.19;102809.06;5083176;28;61698;-79
2022/01/27 05:51:24;;;;;;;;;46.50;40.50;;;;;11.97;55.51;102810.22;5083414;28;62091;-79
2022/01/27 05:53:49;;;;;;;;;50.50;42.50;;;;;11.98;55.42;102801.53;5082519;28;61856;-79
2022/01/27 05:56:15;;;;;;;;;61.50;40.25;;;;;11.95;55.80;102806.56;5081083;28;61937;-79
2022/01/27 05:58:40;;;;;;;;;59.75;43.75;;;;;11.87;55.42;102802.47;5083140;28;61728;-79
2022/01/27 06:01:06;;;;;;;;;60.50;41.00;;;;;11.98;55.80;102806.81;5083170;28;61823;-79
2022/01/27 06:03:31;;;;;;;;;46.25;36.75;;;;;11.99;55.63;102808.59;5081837;28;62571;-79
2022/01/27 06:05:57;;;;;;;;;54.00;39.00;;;;;12.01;55.69;102807.00;5082813;28;61956;-79
2022/01/27 06:08:23;;;;;;;;;51.00;40.25;;;;;12.03;55.82;102812.38;5082911;28;61879;-79
2022/01/27 06:10:50;;;;;;;;;51.00;39.25;;;;;12.02;55.81;102818.47;5081377;28;61803;-79
2022/01/27 06:13:16;;;;;;;;;48.25;38.00;;;;;11.39;57.26;102834.91;5082105;28;62626;-79
2022/01/27 06:15:41;;;;;;;;;56.25;39.50;;;;;11.25;57.66;102832.16;5098116;27;61796;-79
2022/01/27 06:18:07;;;;;;;;;52.50;38.25;;;;;11.23;57.71;102835.50;5098450;27;62150;-79
2022/01/27 06:20:33;;;;;;;;;57.75;39.25;;;;;11.19;57.84;102825.53;5082955;28;62355;-79
2022/01/27 06:22:58;;;;;;;;;63.50;43.75;;;;;11.15;57.95;102824.38;5080686;28;61877;-79
2022/01/27 06:25:26;;;;;;;;;46.25;38.75;;;;;11.17;57.97;102828.03;5080800;28;61788;-79
2022/01/27 06:27:53;;;;;;;;;55.75;42.25;;;;;11.23;58.06;102830.22;5081491;28;61794;-78
2022/01/27 06:30:18;;;;;;;;;59.50;38.25;;;;;11.24;58.21;102839.94;5082867;28;61847;-81
2022/01/27 06:32:44;;;;;;;;;48.25;40.00;;;;;11.27;58.08;102834.91;5079953;28;61865;-83
2022/01/27 06:35:10;;;;;;;;;47.75;40.25;;;;;11.93;56.11;102830.94;5082773;28;61896;-81
2022/01/27 06:37:36;;;;;;;;;52.75;38.50;;;;;12.00;55.94;102831.50;5082417;28;61845;-81
2022/01/27 06:40:04;;;;;;;;;49.25;37.00;;;;;11.96;55.84;102826.81;5082416;28;62063;-82
2022/01/27 06:42:29;;;;;;;;;59.50;38.50;;;;;12.06;55.82;102836.28;5080089;28;63963;-80
2022/01/27 06:44:55;;;;;;;;;50.75;37.25;;;;;12.09;55.64;102838.25;5080941;28;61882;-78
2022/01/27 06:47:20;;;;;;;;;53.50;38.75;;;;;12.11;55.83;102834.00;5082605;28;61895;-77
2022/01/27 06:49:46;;;;;;;;;45.75;39.50;;;;;12.11;55.47;102840.16;5081999;28;61990;-81
2022/01/27 06:52:11;;;;;;;;;60.75;39.00;;;;;12.09;55.38;102839.16;5081519;28;61714;-80
2022/01/27 06:54:37;;;;;;;;;45.50;38.25;;;;;12.10;55.68;102840.97;5081428;28;61918;-81
2022/01/27 06:57:05;;;;;;;;;53.25;41.50;;;;;12.05;55.75;102834.47;5081698;28;62145;-81
2022/01/27 06:59:30;;;;;;;;;52.25;41.75;;;;;11.97;55.87;102838.25;5082111;27;61970;-82
2022/01/27 07:01:56;;;;;;;;;45.75;34.00;;;;;11.96;55.71;102832.09;5081458;28;61899;-81
2022/01/27 07:04:21;;;;;;;;;47.75;39.00;;;;;11.96;55.86;102832.09;5097544;27;62075;-77
2022/01/27 07:06:48;;;;;;;;;58.25;36.75;;;;;11.98;55.72;102841.00;5081753;28;61964;-87
2022/01/27 07:09:14;;;;;;;;;53.75;39.75;;;;;11.98;55.69;102833.13;5097605;27;62085;-81
2022/01/27 07:11:39;;;;;;;;;44.00;36.25;;;;;11.98;55.58;102829.59;5081331;28;61797;-80
2022/01/27 07:14:05;;;;;;;;;55.50;40.25;;;;;12.00;55.86;102836.78;5082103;28;61943;-81
2022/01/27 07:16:33;;;;;;;;;58.75;38.25;;;;;11.93;55.78;102831.84;5082272;27;61693;-81
2022/01/27 07:18:58;;;;;;;;;54.25;41.50;;;;;11.95;56.26;102839.88;5081430;27;62243;-82
2022/01/27 07:21:24;;;;;;;;;55.25;40.25;;;;;11.97;56.15;102844.44;5081389;27;62741;-81
2022/01/27 07:23:49;;;;;;;;;59.25;40.75;;;;;12.02;55.92;102847.44;5096603;27;62194;-82
2022/01/27 07:26:15;;;;;;;;;62.25;46.50;;;;;12.06;55.82;102839.84;5080209;28;61996;-84
2022/01/27 07:28:41;;;;;;;;;47.00;38.00;;;;;11.99;56.11;102831.38;5082447;28;61781;-82
2022/01/27 07:31:06;;;;;;;;;58.50;39.50;;;;;11.92;56.23;102842.28;5081480;28;61930;-85
2022/01/27 07:33:32;;;;;;;;;53.00;42.25;;;;;11.96;56.06;102828.56;5081040;28;61884;-88
2022/01/27 07:35:57;;;;;;;;;51.75;37.50;;;;;11.96;56.26;102825.94;5096450;27;62064;-82
2022/01/27 07:38:23;;;;;;;;;38.00;30.00;;;;;11.97;56.38;102836.53;5080402;28;62129;-77
2022/01/27 07:40:49;;;;;;;;;46.25;38.25;;;;;12.07;56.17;102840.75;5080404;28;62013;-76
2022/01/27 07:43:15;;;;;;;;;46.50;37.00;;;;;12.14;55.97;102828.94;5080844;28;62431;-79
2022/01/27 07:45:41;;;;;;;;;47.25;28.50;;;;;12.14;55.88;102826.31;5080731;28;61957;-80
2022/01/27 07:48:07;;;;;;;;;59.00;40.50;;;;;12.19;55.60;102832.81;5096093;27;61906;-79
2022/01/27 07:50:33;;;;;;;;;55.75;36.25;;;;;12.16;55.96;102835.22;5087549;27;62867;-83
2022/01/27 07:52:59;;;;;;;;;67.75;42.75;;;;;12.10;56.18;102834.78;5090212;27;61999;-83
2022/01/27 07:55:25;;;;;;;;;47.25;38.25;;;;;12.06;56.04;102837.22;5081530;27;61903;-83
2022/01/27 07:57:51;;;;;;;;;59.00;38.50;;;;;12.09;56.22;102840.88;5087833;27;62211;-84
2022/01/27 08:00:17;;;;;;;;;42.00;31.50;;;;;12.11;56.16;102839.28;5092374;27;62357;-83
2022/01/27 08:02:43;;;;;;;;;51.75;38.25;;;;;12.11;56.03;102829.63;5082938;28;61957;-82
2022/01/27 08:05:09;;;;;;;;;49.00;37.25;;;;;12.14;55.91;102834.22;5081627;28;61757;-83
2022/01/27 08:07:34;;;;;;;;;45.50;38.75;;;;;12.18;56.20;102841.53;5084070;27;61912;-83
2022/01/27 08:10:00;;;;;;;;;57.50;38.00;;;;;12.18;55.87;102831.00;5082901;28;62712;-83
2022/01/27 08:12:25;;;;;;;;;56.00;39.00;;;;;12.24;55.75;102840.22;5097230;27;61969;-83
2022/01/27 08:14:51;;;;;;;;;47.25;38.50;;;;;12.25;56.01;102839.44;5099683;27;61871;-83
2022/01/27 08:17:17;;;;;;;;;49.25;40.00;;;;;12.32;55.71;102846.06;5084424;27;61827;-83
2022/01/27 08:19:43;;;;;;;;;43.50;32.75;;;;;12.27;56.02;102847.44;5097956;27;63839;-82
2022/01/27 08:22:10;;;;;;;;;57.00;38.25;;;;;12.26;55.92;102843.88;5083801;27;62259;-83
2022/01/27 08:24:37;;;;;;;;;53.25;41.25;;;;;12.26;56.18;102848.25;5084870;27;62131;-83
2022/01/27 08:27:05;;;;;;;;;55.75;39.25;;;;;12.18;56.07;102841.53;5083504;28;61912;-83
2022/01/27 08:29:41;;;;;;;;;45.25;36.00;;;;;12.33;56.29;102854.84;5081914;28;65004;-83
2022/01/27 08:32:10;;;;;;;;;43.50;35.00;;;;;12.30;55.82;102852.94;5082066;28;62001;-83
2022/01/27 08:34:39;;;;;;;;;62.50;39.25;;;;;12.30;55.91;102859.88;5080581;28;61916;-83
2022/01/27 08:37:09;;;;;;;;;50.50;37.00;;;;;12.36;55.78;102852.44;5081433;27;62190;-83
2022/01/27 08:39:36;;;;;;;;;43.50;33.25;;;;;12.37;55.67;102852.53;5082301;28;61815;-83
2022/01/27 08:42:03;;;;;;;;;51.50;38.00;;;;;12.41;55.84;102851.06;5098267;27;62119;-83
2022/01/27 08:44:29;;;;;;;;;56.00;38.75;;;;;12.40;55.70;102843.94;5083853;28;61779;-82
2022/01/27 08:46:55;;;;;;;;;38.75;33.00;;;;;12.40;55.95;102834.34;5082985;28;62087;-83
2022/01/27 08:49:23;;;;;;;;;51.00;34.25;;;;;12.46;55.53;102845.28;5081060;28;63652;-84
2022/01/27 08:51:49;;;;;;;;;48.75;37.00;;;;;12.52;55.50;102838.63;5083882;28;62233;-83
2022/01/27 08:54:14;;;;;;;;;42.50;32.50;;;;;12.54;55.21;102834.38;5083737;27;62017;-83
2022/01/27 08:56:42;;;;;;;;;50.75;37.75;;;;;12.56;55.45;102840.66;5082479;28;61945;-83
2022/01/27 08:59:08;;;;;;;;;47.25;33.75;;;;;12.52;55.45;102836.91;5083383;27;61848;-83
2022/01/27 09:01:33;;;;;;;;;55.50;37.50;;;;;12.55;55.46;102838.81;5083503;27;62029;-83
2022/01/27 09:03:59;;;;;;;;;49.25;31.25;;;;;12.53;55.35;102828.16;5081831;28;61905;-83
2022/01/27 09:06:28;;;;;;;;;49.25;40.25;;;;;12.57;55.41;102831.94;5082774;28;61787;-82
2022/01/27 09:08:54;;;;;;;;;52.25;40.00;;;;;12.62;54.97;102827.94;5082102;27;62125;-83
2022/01/27 09:11:20;;;;;;;;;44.00;38.00;;;;;12.70;55.05;102826.69;5083686;27;61784;-83
2022/01/27 09:13:45;;;;;;;;;49.50;38.00;;;;;12.80;55.22;102821.25;5082710;28;62371;-83
2022/01/27 09:16:11;;;;;;;;;50.50;38.00;;;;;12.88;54.91;102817.44;5084007;27;61809;-83
2022/01/27 09:18:38;;;;;;;;;56.00;39.25;;;;;12.95;54.93;102823.13;5081401;28;64581;-83
2022/01/27 09:21:09;;;;;;;;;46.25;35.25;;;;;12.94;54.69;102823.91;5083320;27;61781;-82
2022/01/27 09:23:35;;;;;;;;;45.25;31.50;;;;;12.98;54.69;102818.97;5083793;28;61890;-83
2022/01/27 09:26:08;;;;;;;;;41.75;36.50;;;;;13.04;54.72;102823.72;5083351;27;61871;-83
2022/01/27 09:28:33;;;;;;;;;48.25;37.00;;;;;13.04;54.60;102819.34;5081684;28;64682;-83
2022/01/27 09:30:59;;;;;;;;;48.75;36.50;;;;;13.21;54.52;102823.13;5083615;28;61750;-83
2022/01/27 09:33:25;;;;;;;;;40.00;37.25;;;;;13.23;54.41;102833.78;5082726;27;61856;-83
2022/01/27 09:35:50;;;;;;;;;58.75;38.25;;;;;13.34;54.63;102829.25;5083326;27;61862;-83
2022/01/27 09:38:16;;;;;;;;;56.00;42.75;;;;;13.40;54.09;102829.66;5082577;28;62997;-83
2022/01/27 09:40:46;;;;;;;;;36.50;29.75;;;;;13.44;54.11;102823.78;5081872;28;61847;-83
2022/01/27 09:43:12;;;;;;;;;39.00;35.75;;;;;13.54;54.44;102827.91;5083274;27;61939;-83
2022/01/27 09:45:39;;;;;;;;;43.25;32.50;;;;;13.55;53.74;102830.66;5083466;27;61806;-83
2022/01/27 09:48:13;;;;;;;;;44.25;33.50;;;;;13.59;53.85;102834.41;5080615;28;63874;-82
2022/01/27 09:53:12;;;;;;;;;51.75;41.25;;;;;13.66;53.39;102819.06;5083363;27;61782;-83
2022/01/27 09:55:38;;;;;;;;;50.00;38.25;;;;;13.72;53.39;102815.00;5082987;28;61687;-83
2022/01/27 09:58:06;;;;;;;;;49.75;39.50;;;;;13.75;53.10;102815.19;5082588;28;61852;-83
2022/01/27 10:00:31;;;;;;;;;49.25;39.00;;;;;13.79;53.21;102807.56;5081375;28;61867;-82
2022/01/27 10:03:11;;;;;;;;;56.00;39.75;;;;;13.92;53.43;102814.53;5081651;28;61914;-82
2022/01/27 10:05:38;;;;;;;;;47.00;36.75;;;;;13.94;52.96;102814.66;5082821;28;61987;-82
2022/01/27 10:08:08;;;;;;;;;62.50;39.50;;;;;13.88;52.82;102802.91;5080889;28;61757;-82
2022/01/27 10:10:37;;;;;;;;;51.75;36.25;;;;;13.99;53.00;102803.56;5082296;28;61904;-83
2022/01/27 10:13:04;;;;;;;;;52.25;37.50;;;;;14.02;52.92;102806.38;5083245;28;61839;-83
2022/01/27 10:15:37;;;;;;;;;44.75;35.25;;;;;14.10;52.62;102804.25;5082835;28;62198;-83
2022/01/27 10:18:15;;;;;;;;;54.50;37.25;;;;;14.17;52.81;102805.53;5082314;28;62572;-83
2022/01/27 10:20:44;;;;;;;;;56.25;37.25;;;;;14.26;52.71;102809.63;5082080;28;62124;-82
2022/01/27 10:23:22;;;;;;;;;47.50;37.50;;;;;14.28;52.48;102805.34;5098691;27;62120;-83
2022/01/27 10:25:55;;;;;;;;;37.75;27.00;;;;;14.27;52.44;102808.84;5081362;28;61756;-82
2022/01/27 10:31:23;;;;;;;;;47.00;36.25;;;;;14.29;52.29;102817.78;5082521;28;61974;-83
2022/01/27 10:33:57;;;;;;;;;51.00;37.50;;;;;14.29;52.85;102811.59;5080940;28;62182;-82
2022/01/27 10:36:26;;;;;;;;;46.00;30.00;;;;;14.37;52.66;102804.09;5081307;28;62059;-83
2022/01/27 10:38:59;;;;;;;;;43.00;35.75;;;;;14.38;52.45;102793.66;5081956;28;61838;-82
2022/01/27 10:41:27;;;;;;;;;47.00;37.50;;;;;14.40;52.37;102789.38;5080916;27;61951;-83
2022/01/27 10:44:13;;;;;;;;;51.25;33.75;;;;;14.44;52.45;102795.72;5082581;28;61863;-83
2022/01/27 10:46:58;;;;;;;;;41.50;31.25;;;;;14.49;52.20;102794.28;5097546;27;61830;-82
2022/01/27 10:49:36;;;;;;;;;45.25;31.25;;;;;14.43;52.17;102800.09;5081840;28;62077;-82
2022/01/27 10:52:02;;;;;;;;;48.50;37.00;;;;;14.44;52.32;102801.00;5082524;28;61806;-84
2022/01/27 10:54:48;;;;;;;;;46.25;36.50;;;;;14.50;52.22;102801.38;5115224;27;61893;-82
2022/01/27 10:57:14;;;;;;;;;44.00;34.25;;;;;14.52;52.11;102808.63;5080927;28;61855;-83
2022/01/27 10:59:41;;;;;;;;;45.00;31.00;;;;;14.55;51.95;102804.34;5081195;28;62660;-83
2022/01/27 11:02:12;;;;;;;;;43.50;35.75;;;;;14.46;52.17;102802.97;5080612;28;61700;-83
2022/01/27 11:04:42;;;;;;;;;43.00;37.25;;;;;14.40;52.03;102813.16;5081445;28;62182;-82
2022/01/27 11:07:13;;;;;;;;;54.50;36.75;;;;;14.31;52.47;102821.41;5082180;28;62021;-83
2022/01/27 11:09:44;;;;;;;;;47.25;36.00;;;;;14.29;52.78;102816.88;5079803;28;65228;-83
2022/01/27 11:12:14;;;;;;;;;45.75;37.50;;;;;14.32;52.47;102822.31;5080910;28;61933;-83
2022/01/27 11:14:40;;;;;;;;;54.00;38.00;;;;;14.34;53.01;102817.16;5081614;28;62001;-83
2022/01/27 11:17:10;;;;;;;;;48.00;32.25;;;;;14.43;52.55;102815.06;5081140;28;61783;-83
2022/01/27 11:27:38;;;;;;;;;49.75;38.50;;;;;14.32;52.79;102811.75;5082312;28;61842;-83
2022/01/27 11:30:33;;;;;;;;;45.25;37.50;;;;;13.55;54.56;102812.19;5081251;27;62818;-83
2022/01/27 11:33:16;;;;;;;;;43.25;37.75;;;;;13.35;55.33;102799.44;5083713;28;62296;-82
2022/01/27 11:35:43;;;;;;;;;47.25;37.00;;;;;13.33;55.44;102790.50;5085243;28;62057;-83
2022/01/27 11:38:10;;;;;;;;;47.00;37.50;;;;;13.27;55.51;102793.63;5085702;28;62303;-82
2022/01/27 11:40:46;;;;;;;;;47.00;38.00;;;;;13.32;55.72;102789.56;5100480;27;63928;-83
2022/01/27 11:43:16;;;;;;;;;52.75;38.50;;;;;13.38;55.26;102782.06;5085082;28;62063;-82
2022/01/27 11:45:43;;;;;;;;;50.25;38.75;;;;;13.52;55.74;102771.50;5083451;28;61845;-82
2022/01/27 11:48:22;;;;;;;;;47.25;32.25;;;;;13.64;55.47;102769.66;5085485;28;62177;-83
2022/01/27 11:50:52;;;;;;;;;58.00;41.25;;;;;13.68;55.45;102763.75;5084673;28;62668;-83
2022/01/27 11:53:40;;;;;;;;;54.00;39.25;;;;;13.79;55.42;102770.59;5101165;27;62022;-83
2022/01/27 11:56:35;;;;;;;;;50.25;36.25;;;;;13.86;54.95;102771.91;5083666;28;62170;-83
2022/01/27 11:59:03;;;;;;;;;37.50;33.75;;;;;13.89;54.95;102770.38;5085127;27;61827;-83
2022/01/27 12:01:34;;;;;;;;;44.00;38.75;;;;;13.93;54.69;102770.59;5100476;27;62027;-84
2022/01/27 12:04:06;;;;;;;;;57.50;36.00;;;;;13.98;55.02;102767.41;5100738;27;62925;-83
2022/01/27 12:06:36;;;;;;;;;41.25;32.25;;;;;14.04;55.03;102775.72;5101168;27;61848;-83